Time;durP1;ratioP1;P1;durP2;ratioP2;P2;SDS_P1;SDS_P2;PMS_P1;PMS_P2;Temp;Humidity;BMP_temperature;BMP_pressure;BME280_temperature;BME280_humidity;BME280_pressure;Samples;Min_cycle;Max_cycle;Signal;HPM_P1;HPM_P2
2021/07/25 00:01:45;;;;;;;1.92;1.30;;;20.50;99.90;;;;;;5095133;28;20418;-57
2021/07/25 00:04:12;;;;;;;2.70;1.93;;;20.50;99.90;;;;;;5094409;28;20441;-57
2021/07/25 00:06:39;;;;;;;2.50;1.80;;;20.40;99.90;;;;;;5094708;28;20417;-57
2021/07/25 00:09:06;;;;;;;2.35;1.38;;;20.40;99.90;;;;;;5095027;28;20434;-58
2021/07/25 00:11:33;;;;;;;2.30;1.80;;;20.40;99.90;;;;;;5093652;28;20674;-58
2021/07/25 00:14:04;;;;;;;4.40;1.63;;;20.40;99.90;;;;;;5093402;28;20425;-57
2021/07/25 00:16:31;;;;;;;1.75;1.45;;;20.40;99.90;;;;;;5093888;28;20413;-58
2021/07/25 00:19:00;;;;;;;3.10;1.60;;;20.50;99.90;;;;;;5093870;28;20425;-58
2021/07/25 00:21:28;;;;;;;2.05;1.50;;;20.50;99.90;;;;;;5094678;28;20418;-57
2021/07/25 00:23:57;;;;;;;3.20;1.70;;;20.50;99.90;;;;;;5093345;28;20794;-59
2021/07/25 00:26:33;;;;;;;3.10;1.90;;;20.40;99.90;;;;;;5094715;28;20469;-56
2021/07/25 00:29:00;;;;;;;2.70;1.70;;;20.30;99.90;;;;;;5095000;28;20426;-56
2021/07/25 00:31:29;;;;;;;2.30;1.60;;;20.20;99.90;;;;;;5093658;28;20414;-55
2021/07/25 00:33:56;;;;;;;3.30;2.10;;;20.10;99.90;;;;;;5092611;28;20520;-57
2021/07/25 00:36:27;;;;;;;3.50;1.70;;;20.20;99.90;;;;;;5094209;28;20821;-57
2021/07/25 00:38:53;;;;;;;2.30;1.50;;;20.10;99.90;;;;;;5095825;28;20426;-57
2021/07/25 00:41:20;;;;;;;5.13;1.80;;;20.10;99.90;;;;;;5094066;28;20425;-57
2021/07/25 00:43:48;;;;;;;3.83;1.90;;;20.10;99.90;;;;;;5094684;28;20425;-57
2021/07/25 00:46:16;;;;;;;2.60;1.70;;;20.20;99.90;;;;;;5094484;28;20429;-57
2021/07/25 00:48:45;;;;;;;3.17;1.60;;;20.20;99.90;;;;;;5095245;28;20426;-57
2021/07/25 00:51:12;;;;;;;3.85;1.73;;;20.20;99.90;;;;;;5094858;28;20721;-57
2021/07/25 00:53:42;;;;;;;2.60;1.88;;;20.20;99.90;;;;;;5093929;28;20690;-58
2021/07/25 00:56:10;;;;;;;2.88;1.70;;;20.30;99.90;;;;;;5093494;28;20420;-57
2021/07/25 00:58:38;;;;;;;3.35;1.60;;;20.30;99.90;;;;;;5093308;28;20426;-57
2021/07/25 01:01:05;;;;;;;2.40;1.75;;;20.30;99.90;;;;;;5093153;28;20418;-56
2021/07/25 01:03:45;;;;;;;2.70;1.90;;;20.40;99.90;;;;;;5092895;28;20699;-53
2021/07/25 01:06:23;;;;;;;2.30;1.83;;;20.30;99.90;;;;;;5091901;28;20865;-56
2021/07/25 01:08:58;;;;;;;2.25;1.70;;;20.20;99.90;;;;;;5095213;28;20852;-54
2021/07/25 01:11:31;;;;;;;3.60;1.90;;;20.20;99.90;;;;;;5095039;28;20817;-56
2021/07/25 01:13:59;;;;;;;2.05;1.85;;;20.10;99.90;;;;;;5094584;28;20430;-57
2021/07/25 01:16:27;;;;;;;2.78;1.80;;;20.10;99.90;;;;;;5094776;28;20426;-56
2021/07/25 01:18:53;;;;;;;3.05;1.60;;;20.10;99.90;;;;;;5094695;28;20501;-54
2021/07/25 01:21:22;;;;;;;2.38;1.60;;;20.10;99.90;;;;;;5094697;28;20425;-56
2021/07/25 01:23:49;;;;;;;2.60;1.70;;;20.00;99.90;;;;;;5094975;28;20423;-56
2021/07/25 01:26:21;;;;;;;2.70;2.00;;;20.10;99.90;;;;;;5094557;28;20779;-57
2021/07/25 01:28:51;;;;;;;2.22;1.80;;;20.20;99.90;;;;;;5093251;28;20417;-55
2021/07/25 01:31:21;;;;;;;3.50;1.88;;;20.00;99.90;;;;;;5093351;28;20430;-55
2021/07/25 01:33:50;;;;;;;2.75;1.90;;;20.00;99.90;;;;;;5092753;28;20417;-55
2021/07/25 01:36:18;;;;;;;4.10;1.95;;;20.00;99.90;;;;;;5093224;28;20424;-59
2021/07/25 01:38:46;;;;;;;2.75;1.70;;;19.90;99.90;;;;;;5092601;28;20417;-56
2021/07/25 01:41:16;;;;;;;3.35;1.60;;;19.90;99.90;;;;;;5093154;28;20520;-56
2021/07/25 01:43:46;;;;;;;3.10;1.70;;;20.00;99.90;;;;;;5094502;28;20980;-56
2021/07/25 01:46:13;;;;;;;2.08;1.50;;;20.00;99.90;;;;;;5094882;28;20868;-57
2021/07/25 01:48:42;;;;;;;3.20;2.30;;;19.90;99.90;;;;;;5094926;28;20709;-58
2021/07/25 01:51:09;;;;;;;2.70;1.80;;;20.00;99.90;;;;;;5094684;28;20734;-58
2021/07/25 01:53:36;;;;;;;2.42;1.90;;;20.00;99.90;;;;;;5094416;28;20454;-58
2021/07/25 01:56:04;;;;;;;3.38;1.90;;;19.80;99.90;;;;;;5094455;28;20705;-58
2021/07/25 01:58:31;;;;;;;2.30;1.70;;;19.80;99.90;;;;;;5094321;28;20445;-60
2021/07/25 02:00:58;;;;;;;3.40;1.60;;;20.00;99.90;;;;;;5094747;28;20525;-57
2021/07/25 02:03:28;;;;;;;3.47;1.60;;;19.90;99.90;;;;;;5095024;28;20710;-56
2021/07/25 02:05:55;;;;;;;3.00;1.80;;;19.90;99.90;;;;;;5094509;28;20487;-55
2021/07/25 02:08:22;;;;;;;4.40;1.77;;;20.00;99.90;;;;;;5093792;28;20424;-57
2021/07/25 02:10:50;;;;;;;4.20;2.30;;;20.00;99.90;;;;;;5094007;28;20426;-56
2021/07/25 02:13:21;;;;;;;2.80;1.50;;;20.10;99.90;;;;;;5094199;28;20440;-57
2021/07/25 02:15:48;;;;;;;3.38;2.30;;;20.20;99.90;;;;;;5094354;28;20457;-57
2021/07/25 02:18:14;;;;;;;3.00;2.17;;;20.20;99.90;;;;;;5094025;28;20770;-58
2021/07/25 02:20:42;;;;;;;2.78;2.08;;;20.30;99.90;;;;;;5093643;28;20846;-58
2021/07/25 02:23:09;;;;;;;3.38;1.67;;;20.30;99.90;;;;;;5093654;28;20426;-57
2021/07/25 02:25:38;;;;;;;3.40;2.00;;;20.30;99.90;;;;;;5093251;28;20456;-57
2021/07/25 02:28:05;;;;;;;2.80;1.50;;;20.20;99.90;;;;;;5093156;28;20422;-57
2021/07/25 02:30:33;;;;;;;2.25;1.70;;;20.10;99.90;;;;;;5093497;28;20517;-57
2021/07/25 02:33:00;;;;;;;3.58;2.08;;;20.10;99.90;;;;;;5094205;28;20422;-57
2021/07/25 02:35:27;;;;;;;2.10;1.58;;;20.10;99.90;;;;;;5093946;28;20418;-58
2021/07/25 02:37:54;;;;;;;2.03;1.70;;;20.00;99.90;;;;;;5094362;28;20424;-57
2021/07/25 02:40:21;;;;;;;3.15;1.83;;;20.10;99.90;;;;;;5094704;28;20433;-59
2021/07/25 02:42:48;;;;;;;2.63;1.98;;;20.10;99.90;;;;;;5096289;28;20428;-56
2021/07/25 02:45:15;;;;;;;3.45;2.00;;;20.00;99.90;;;;;;5096439;28;20433;-58
2021/07/25 02:47:43;;;;;;;2.60;1.80;;;20.00;99.90;;;;;;5095730;28;20512;-58
2021/07/25 02:50:11;;;;;;;3.10;2.10;;;20.00;99.90;;;;;;5096021;28;20533;-57
2021/07/25 02:52:38;;;;;;;2.67;2.40;;;19.90;99.90;;;;;;5095774;28;20492;-58
2021/07/25 02:55:05;;;;;;;2.92;2.05;;;19.80;99.90;;;;;;5095896;28;20457;-58
2021/07/25 02:57:32;;;;;;;2.60;1.80;;;19.70;99.90;;;;;;5096195;28;20424;-57
2021/07/25 02:59:59;;;;;;;2.60;1.90;;;19.80;99.90;;;;;;5096288;28;20430;-58
2021/07/25 03:02:26;;;;;;;2.60;2.35;;;19.90;99.90;;;;;;5096322;28;20414;-57
2021/07/25 03:04:54;;;;;;;2.75;2.55;;;19.90;99.90;;;;;;5096364;28;20729;-58
2021/07/25 03:07:21;;;;;;;2.47;1.80;;;19.90;99.90;;;;;;5096144;28;20432;-58
2021/07/25 03:09:48;;;;;;;4.18;2.63;;;19.90;99.90;;;;;;5096065;28;20790;-57
2021/07/25 03:12:15;;;;;;;3.30;2.00;;;19.90;99.90;;;;;;5096465;28;20714;-58
2021/07/25 03:14:42;;;;;;;2.80;1.90;;;20.10;99.90;;;;;;5096296;28;20422;-57
2021/07/25 03:17:09;;;;;;;2.85;1.95;;;20.20;99.90;;;;;;5097393;28;20422;-58
2021/07/25 03:19:36;;;;;;;3.33;2.30;;;20.30;99.90;;;;;;5096939;28;20425;-58
2021/07/25 03:22:07;;;;;;;3.70;2.10;;;20.30;99.90;;;;;;5096805;28;20478;-56
2021/07/25 03:24:34;;;;;;;3.50;1.50;;;20.20;99.90;;;;;;5096840;28;20944;-58
2021/07/25 03:27:01;;;;;;;2.70;2.10;;;20.20;99.90;;;;;;5097442;28;20508;-58
2021/07/25 03:29:28;;;;;;;1.90;1.50;;;20.20;99.90;;;;;;5096755;28;20432;-58
2021/07/25 03:31:55;;;;;;;2.53;1.63;;;20.00;99.90;;;;;;5097235;28;20897;-58
2021/07/25 03:34:22;;;;;;;2.37;1.60;;;19.90;99.90;;;;;;5096951;28;20779;-58
2021/07/25 03:36:49;;;;;;;1.60;1.50;;;20.00;99.90;;;;;;5096166;28;20418;-58
2021/07/25 03:39:20;;;;;;;2.30;1.88;;;20.00;99.90;;;;;;5096413;28;20414;-56
2021/07/25 03:41:47;;;;;;;3.40;1.80;;;20.10;99.90;;;;;;5096976;28;20418;-56
2021/07/25 03:44:14;;;;;;;4.40;2.30;;;20.10;99.90;;;;;;5095898;28;20422;-57
2021/07/25 03:46:41;;;;;;;3.33;1.55;;;20.20;99.90;;;;;;5096590;28;20430;-57
2021/07/25 03:49:08;;;;;;;3.50;2.03;;;20.20;99.90;;;;;;5096037;28;20422;-59
2021/07/25 03:51:36;;;;;;;2.70;1.70;;;20.20;99.90;;;;;;5096107;28;20418;-57
2021/07/25 03:54:04;;;;;;;3.00;1.80;;;20.10;99.90;;;;;;5096003;28;20845;-58
2021/07/25 03:56:33;;;;;;;2.80;2.10;;;20.10;99.90;;;;;;5096630;28;20501;-57
2021/07/25 03:58:59;;;;;;;2.10;1.50;;;20.00;99.90;;;;;;5096064;28;20885;-58
2021/07/25 04:01:27;;;;;;;2.30;2.00;;;20.00;99.90;;;;;;5095495;28;20603;-58
2021/07/25 04:03:53;;;;;;;2.10;1.90;;;19.80;99.90;;;;;;5095075;28;20418;-58
2021/07/25 04:06:20;;;;;;;1.85;1.60;;;19.70;99.90;;;;;;5095853;28;20434;-57
2021/07/25 04:08:47;;;;;;;4.40;2.10;;;19.70;99.90;;;;;;5095122;28;20413;-57
2021/07/25 04:11:18;;;;;;;1.83;1.73;;;19.80;99.90;;;;;;5095137;28;20432;-57
2021/07/25 04:13:46;;;;;;;2.70;1.60;;;19.80;99.90;;;;;;5094820;28;20414;-57
2021/07/25 04:16:13;;;;;;;4.15;1.77;;;19.80;99.90;;;;;;5094076;28;20428;-56
2021/07/25 04:18:40;;;;;;;2.80;1.90;;;19.70;99.90;;;;;;5093822;28;20420;-57
2021/07/25 04:21:07;;;;;;;3.33;2.20;;;19.60;99.90;;;;;;5093816;28;20524;-57
2021/07/25 04:23:34;;;;;;;2.20;1.80;;;19.50;99.90;;;;;;5092506;28;20418;-57
2021/07/25 04:26:01;;;;;;;2.28;1.80;;;19.40;99.90;;;;;;5093190;28;20434;-57
2021/07/25 04:28:29;;;;;;;2.03;1.50;;;19.50;99.90;;;;;;5095018;28;20417;-57
2021/07/25 04:30:57;;;;;;;3.17;1.52;;;19.60;99.90;;;;;;5095082;28;20432;-57
2021/07/25 04:33:25;;;;;;;2.58;1.70;;;19.50;99.90;;;;;;5096089;28;20615;-57
2021/07/25 04:35:53;;;;;;;1.85;1.40;;;19.60;99.90;;;;;;5095402;28;20426;-57
2021/07/25 04:38:21;;;;;;;1.77;1.30;;;19.60;99.90;;;;;;5095723;28;20799;-55
2021/07/25 04:40:54;;;;;;;2.67;1.30;;;19.50;99.90;;;;;;5095198;28;20428;-57
2021/07/25 04:43:23;;;;;;;1.70;1.30;;;19.60;99.90;;;;;;5095413;28;20424;-58
2021/07/25 04:45:55;;;;;;;2.30;1.40;;;19.70;99.90;;;;;;5094543;28;20435;-57
2021/07/25 04:48:29;;;;;;;1.90;1.20;;;19.80;99.90;;;;;;5093990;28;20424;-58
2021/07/25 04:51:03;;;;;;;1.70;1.20;;;19.80;99.90;;;;;;5094448;28;20426;-58
2021/07/25 04:53:33;;;;;;;1.80;1.13;;;19.90;99.90;;;;;;5095688;28;20516;-58
2021/07/25 04:56:02;;;;;;;1.50;1.10;;;20.10;99.90;;;;;;5095463;28;20429;-58
2021/07/25 04:58:35;;;;;;;1.30;1.10;;;20.10;99.90;;;;;;5094712;28;20424;-58
2021/07/25 05:01:03;;;;;;;3.47;1.20;;;20.20;99.90;;;;;;5093824;28;20436;-58
2021/07/25 05:03:33;;;;;;;2.20;1.10;;;20.30;99.90;;;;;;5093574;28;20517;-58
2021/07/25 05:06:01;;;;;;;1.80;1.13;;;20.40;99.90;;;;;;5093376;28;20861;-58
2021/07/25 05:08:28;;;;;;;1.50;1.10;;;20.50;99.90;;;;;;5093242;28;20893;-58
2021/07/25 05:11:03;;;;;;;2.73;1.40;;;20.50;99.90;;;;;;5093775;28;20425;-58
2021/07/25 05:13:35;;;;;;;1.88;1.20;;;20.40;99.90;;;;;;5093915;28;20500;-57
2021/07/25 05:16:06;;;;;;;2.90;1.25;;;20.30;99.90;;;;;;5095306;28;20436;-58
2021/07/25 05:18:39;;;;;;;1.50;1.00;;;20.40;99.90;;;;;;5095186;28;20837;-58
2021/07/25 05:21:17;;;;;;;1.45;1.20;;;20.40;99.90;;;;;;5094962;28;20864;-57
2021/07/25 05:23:45;;;;;;;1.60;1.20;;;20.50;99.90;;;;;;5094989;28;20716;-58
2021/07/25 05:26:14;;;;;;;1.40;1.08;;;20.40;99.90;;;;;;5094622;28;20725;-58
2021/07/25 05:28:42;;;;;;;1.70;1.20;;;20.50;99.90;;;;;;5094886;28;20720;-58
2021/07/25 05:31:10;;;;;;;2.85;1.10;;;20.50;99.90;;;;;;5095225;28;20837;-59
2021/07/25 05:33:38;;;;;;;1.60;1.20;;;20.50;99.90;;;;;;5094773;28;20418;-58
2021/07/25 05:36:06;;;;;;;2.10;1.30;;;20.40;99.90;;;;;;5094949;28;20496;-57
2021/07/25 05:38:32;;;;;;;1.50;1.10;;;20.40;99.90;;;;;;5095161;28;20409;-58
2021/07/25 05:40:59;;;;;;;1.50;1.10;;;20.50;99.90;;;;;;5094458;28;20436;-58
2021/07/25 05:43:26;;;;;;;2.50;1.40;;;20.60;99.90;;;;;;5094316;28;20422;-58
2021/07/25 05:45:53;;;;;;;3.42;1.10;;;20.60;99.90;;;;;;5094861;28;20947;-58
2021/07/25 05:48:20;;;;;;;1.90;1.08;;;20.70;99.90;;;;;;5094526;28;20418;-57
2021/07/25 05:50:48;;;;;;;1.60;1.03;;;20.70;99.90;;;;;;5094543;28;20851;-58
2021/07/25 05:53:16;;;;;;;1.60;1.00;;;20.80;99.90;;;;;;5094475;28;20417;-58
2021/07/25 05:55:43;;;;;;;1.60;1.10;;;20.90;99.90;;;;;;5094700;28;20414;-57
2021/07/25 05:58:10;;;;;;;1.40;1.00;;;20.90;99.90;;;;;;5094615;28;20508;-58
2021/07/25 06:00:36;;;;;;;1.13;0.90;;;20.80;99.90;;;;;;5094630;28;20421;-58
2021/07/25 06:03:04;;;;;;;1.60;1.00;;;20.80;99.90;;;;;;5094420;28;20420;-58
2021/07/25 06:05:34;;;;;;;1.20;0.90;;;20.90;99.90;;;;;;5094062;28;20440;-58
2021/07/25 06:08:04;;;;;;;1.58;0.90;;;20.80;99.90;;;;;;5092804;28;20416;-58
2021/07/25 06:10:32;;;;;;;2.50;0.90;;;20.90;99.90;;;;;;5092949;28;20433;-58
2021/07/25 06:13:00;;;;;;;1.30;0.90;;;21.10;99.90;;;;;;5092398;28;20410;-58
2021/07/25 06:15:29;;;;;;;1.20;0.90;;;21.20;99.90;;;;;;5096570;28;20432;-58
2021/07/25 06:18:00;;;;;;;2.00;0.90;;;21.10;99.90;;;;;;5096669;28;20424;-58
2021/07/25 06:20:28;;;;;;;1.60;0.90;;;21.00;99.90;;;;;;5098074;28;20910;-59
2021/07/25 06:22:56;;;;;;;2.20;1.02;;;21.00;99.90;;;;;;5098381;28;20421;-58
2021/07/25 06:25:26;;;;;;;2.20;0.90;;;20.90;99.90;;;;;;5098343;28;20420;-58
2021/07/25 06:27:55;;;;;;;1.90;0.90;;;20.80;99.90;;;;;;5097737;28;20512;-58
2021/07/25 06:30:27;;;;;;;1.63;0.90;;;20.90;99.90;;;;;;5097976;28;20425;-58
2021/07/25 06:32:58;;;;;;;1.20;1.00;;;21.00;99.90;;;;;;5098009;28;21046;-59
2021/07/25 06:35:27;;;;;;;1.30;0.90;;;21.00;99.90;;;;;;5097934;28;20430;-59
2021/07/25 06:37:55;;;;;;;1.40;1.00;;;21.00;99.90;;;;;;5097658;28;20513;-58
2021/07/25 06:40:22;;;;;;;1.25;0.90;;;21.00;99.90;;;;;;5096060;28;20430;-57
2021/07/25 06:42:50;;;;;;;2.55;1.00;;;21.10;99.90;;;;;;5096252;28;20414;-58
2021/07/25 06:45:17;;;;;;;1.77;1.00;;;21.00;99.90;;;;;;5095666;28;20426;-58
2021/07/25 06:47:48;;;;;;;1.50;1.10;;;20.80;99.90;;;;;;5096089;28;20426;-58
2021/07/25 06:50:17;;;;;;;1.50;1.30;;;20.90;99.90;;;;;;5095573;28;20437;-58
2021/07/25 06:52:43;;;;;;;1.80;1.30;;;21.30;99.90;;;;;;5095950;28;20428;-58
2021/07/25 06:55:11;;;;;;;2.50;1.10;;;21.60;99.90;;;;;;5096208;28;20422;-58
2021/07/25 06:57:39;;;;;;;1.60;1.20;;;22.00;99.90;;;;;;5096881;28;20903;-58
2021/07/25 07:00:09;;;;;;;1.70;1.10;;;22.40;99.90;;;;;;5096060;28;20630;-58
2021/07/25 07:02:49;;;;;;;1.90;1.20;;;22.80;99.90;;;;;;5094791;28;20424;-58
2021/07/25 07:05:18;;;;;;;1.42;1.10;;;23.00;99.90;;;;;;5094761;28;20432;-58
2021/07/25 07:07:46;;;;;;;2.00;1.13;;;22.90;99.90;;;;;;5095079;28;20528;-58
2021/07/25 07:10:13;;;;;;;1.73;1.35;;;22.90;99.90;;;;;;5095520;28;20857;-58
2021/07/25 07:12:40;;;;;;;2.90;1.58;;;22.90;99.90;;;;;;5095511;28;20422;-58
2021/07/25 07:15:10;;;;;;;2.70;1.60;;;22.70;99.90;;;;;;5096294;28;20784;-58
2021/07/25 07:17:38;;;;;;;2.80;2.05;;;22.50;99.90;;;;;;5093519;28;20454;-57
2021/07/25 07:20:07;;;;;;;1.80;1.50;;;22.30;99.90;;;;;;5095141;28;20456;-58
2021/07/25 07:22:34;;;;;;;2.17;1.50;;;22.10;99.90;;;;;;5095427;28;20551;-58
2021/07/25 07:25:02;;;;;;;2.00;1.60;;;22.00;99.90;;;;;;5087590;28;20429;-58
2021/07/25 07:27:29;;;;;;;1.70;1.60;;;22.20;99.90;;;;;;5093860;28;20429;-57
2021/07/25 07:29:56;;;;;;;1.95;1.20;;;22.30;99.90;;;;;;5095033;28;20418;-58
2021/07/25 07:32:25;;;;;;;1.63;1.30;;;22.50;99.90;;;;;;5094554;28;20725;-58
2021/07/25 07:34:51;;;;;;;2.47;1.10;;;22.60;99.90;;;;;;5094112;28;20810;-57
2021/07/25 07:37:18;;;;;;;2.50;1.20;;;22.80;99.90;;;;;;5093813;28;20414;-58
2021/07/25 07:39:46;;;;;;;1.40;1.20;;;23.00;99.90;;;;;;5093634;28;20424;-58
2021/07/25 07:42:14;;;;;;;2.10;1.30;;;23.00;99.90;;;;;;5092907;28;20794;-59
2021/07/25 07:44:41;;;;;;;1.77;1.38;;;23.30;99.90;;;;;;5090183;28;20492;-58
2021/07/25 07:47:08;;;;;;;2.50;1.40;;;23.40;99.90;;;;;;5093166;28;20441;-58
2021/07/25 07:49:37;;;;;;;2.00;1.40;;;23.20;99.90;;;;;;5093162;28;20425;-58
2021/07/25 07:52:05;;;;;;;1.30;1.10;;;23.00;99.90;;;;;;5092855;28;20546;-59
2021/07/25 07:54:32;;;;;;;1.40;1.20;;;22.70;99.90;;;;;;5079968;28;20855;-59
2021/07/25 07:56:59;;;;;;;1.90;1.30;;;22.50;99.90;;;;;;5075260;28;20510;-59
2021/07/25 07:59:26;;;;;;;2.40;1.20;;;22.50;99.90;;;;;;5074677;28;20701;-58
2021/07/25 08:01:53;;;;;;;1.75;1.10;;;22.50;99.90;;;;;;5073065;28;20451;-59
2021/07/25 08:04:20;;;;;;;1.80;1.20;;;22.60;99.90;;;;;;5072659;28;20723;-59
2021/07/25 08:06:49;;;;;;;1.60;1.00;;;22.80;99.90;;;;;;5071040;28;20431;-59
2021/07/25 08:09:16;;;;;;;1.70;1.20;;;22.90;99.90;;;;;;5070677;28;20415;-59
2021/07/25 08:11:45;;;;;;;2.80;1.10;;;23.00;99.90;;;;;;5071797;28;20739;-59
2021/07/25 08:14:13;;;;;;;1.60;1.20;;;23.20;99.90;;;;;;5070462;28;20863;-59
2021/07/25 08:16:41;;;;;;;1.80;1.10;;;23.40;99.90;;;;;;5071496;28;20411;-58
2021/07/25 08:19:08;;;;;;;1.60;1.20;;;23.60;99.90;;;;;;5072214;28;20422;-59
2021/07/25 08:21:35;;;;;;;1.55;1.20;;;23.80;99.90;;;;;;5071358;28;20427;-59
2021/07/25 08:24:04;;;;;;;2.00;1.30;;;23.80;99.90;;;;;;5090482;28;20904;-59
2021/07/25 08:26:31;;;;;;;2.10;1.20;;;23.50;99.90;;;;;;5091408;28;20520;-60
2021/07/25 08:28:58;;;;;;;1.60;1.20;;;23.50;99.90;;;;;;5088679;28;20523;-60
2021/07/25 08:31:24;;;;;;;2.20;1.20;;;23.50;99.90;;;;;;5092076;28;20426;-58
2021/07/25 08:33:51;;;;;;;1.27;1.00;;;23.50;99.90;;;;;;5092191;28;20509;-58
2021/07/25 08:36:18;;;;;;;1.30;1.10;;;23.00;99.90;;;;;;5092275;28;20726;-58
2021/07/25 08:38:46;;;;;;;2.08;1.00;;;22.90;99.90;;;;;;5075616;28;20498;-58
2021/07/25 08:41:17;;;;;;;1.75;1.00;;;22.80;99.90;;;;;;5073268;28;20428;-58
2021/07/25 08:43:45;;;;;;;1.40;1.00;;;22.90;99.90;;;;;;5073602;28;20423;-58
2021/07/25 08:46:15;;;;;;;1.70;1.10;;;22.80;99.90;;;;;;5071861;28;20445;-58
2021/07/25 08:48:47;;;;;;;1.20;0.90;;;22.90;99.90;;;;;;5073014;28;20415;-58
2021/07/25 08:51:17;;;;;;;2.40;1.10;;;22.90;99.90;;;;;;5073932;28;20432;-58
2021/07/25 08:53:59;;;;;;;1.50;0.90;;;23.00;99.90;;;;;;5073053;28;20419;-59
2021/07/25 08:56:29;;;;;;;1.75;1.10;;;22.90;99.90;;;;;;5072790;28;20411;-59
2021/07/25 08:58:59;;;;;;;2.33;1.00;;;22.80;99.90;;;;;;5074508;28;20485;-59
2021/07/25 09:01:35;;;;;;;1.60;1.17;;;22.70;99.90;;;;;;5074403;28;20504;-59
2021/07/25 09:04:03;;;;;;;1.60;1.00;;;22.80;99.90;;;;;;5074193;28;20873;-59
2021/07/25 09:06:41;;;;;;;1.50;1.00;;;22.90;99.90;;;;;;5080624;28;20428;-59
2021/07/25 09:09:08;;;;;;;1.50;1.00;;;23.10;99.90;;;;;;5084358;28;20441;-59
2021/07/25 09:11:37;;;;;;;1.85;1.10;;;23.10;99.90;;;;;;5084891;28;20819;-59
2021/07/25 09:14:04;;;;;;;1.50;1.00;;;23.10;99.90;;;;;;5095123;28;20517;-60
2021/07/25 09:16:33;;;;;;;1.13;0.90;;;23.00;99.90;;;;;;5094071;28;20417;-59
2021/07/25 09:19:00;;;;;;;1.50;0.90;;;23.00;99.90;;;;;;5093215;28;20422;-60
2021/07/25 09:21:43;;;;;;;1.20;0.93;;;22.80;99.90;;;;;;5093474;28;20738;-59
2021/07/25 09:24:16;;;;;;;1.30;1.10;;;22.90;99.90;;;;;;5090431;28;20479;-59
2021/07/25 09:26:56;;;;;;;2.15;1.25;;;23.00;99.90;;;;;;5092459;28;20455;-60
2021/07/25 09:29:25;;;;;;;1.40;1.20;;;23.10;99.90;;;;;;5093445;28;20422;-59
2021/07/25 09:31:51;;;;;;;2.00;1.30;;;23.20;99.90;;;;;;5093931;28;20418;-59
2021/07/25 09:34:43;;;;;;;1.40;1.10;;;23.30;99.90;;;;;;5088415;28;20421;-59
2021/07/25 09:37:12;;;;;;;1.70;1.30;;;23.60;99.90;;;;;;5057389;28;20436;-59
2021/07/25 09:39:41;;;;;;;2.50;1.20;;;23.80;99.90;;;;;;5079576;28;20430;-59
2021/07/25 09:42:11;;;;;;;1.67;1.15;;;23.90;99.90;;;;;;5079532;28;20439;-59
2021/07/25 09:44:46;;;;;;;2.42;1.30;;;23.90;99.90;;;;;;5072859;28;20472;-59
2021/07/25 09:47:29;;;;;;;1.85;1.30;;;23.70;99.90;;;;;;5079318;28;20444;-59
2021/07/25 09:49:57;;;;;;;4.25;2.45;;;23.20;99.90;;;;;;5076587;28;20461;-58
2021/07/25 09:52:32;;;;;;;2.40;1.70;;;22.80;99.90;;;;;;5092886;28;20424;-59
2021/07/25 09:55:00;;;;;;;4.82;1.50;;;22.70;99.90;;;;;;5087855;28;20948;-59
2021/07/25 09:57:30;;;;;;;2.30;1.30;;;22.70;99.90;;;;;;5093629;28;20428;-59
2021/07/25 09:59:58;;;;;;;1.60;1.10;;;22.50;99.90;;;;;;5092200;28;20539;-58
2021/07/25 10:02:33;;;;;;;1.70;1.20;;;22.30;99.90;;;;;;5073860;28;20423;-58
2021/07/25 10:05:11;;;;;;;1.60;1.10;;;22.20;99.90;;;;;;5073989;28;20518;-59
2021/07/25 10:07:38;;;;;;;1.55;1.02;;;22.30;99.90;;;;;;5074467;28;20435;-58
2021/07/25 10:10:08;;;;;;;1.80;1.10;;;22.30;99.90;;;;;;5075269;28;20459;-59
2021/07/25 10:12:38;;;;;;;1.85;1.60;;;22.20;99.90;;;;;;5075227;28;20851;-59
2021/07/25 10:15:07;;;;;;;1.90;1.20;;;22.20;99.90;;;;;;5074119;28;20431;-59
2021/07/25 10:17:35;;;;;;;2.40;1.10;;;22.00;99.90;;;;;;5074970;28;20419;-58
2021/07/25 10:20:04;;;;;;;1.67;1.00;;;21.90;99.90;;;;;;5078277;28;20783;-58
2021/07/25 10:22:32;;;;;;;1.60;1.10;;;21.80;99.90;;;;;;5081886;28;20710;-58
2021/07/25 10:25:01;;;;;;;2.50;1.00;;;21.60;99.90;;;;;;5074114;28;20498;-57
2021/07/25 10:27:31;;;;;;;1.80;1.10;;;21.30;99.90;;;;;;5075097;28;20526;-58
2021/07/25 10:30:03;;;;;;;1.80;1.00;;;21.20;99.90;;;;;;5075626;28;20427;-59
2021/07/25 10:32:32;;;;;;;1.92;1.00;;;21.10;99.90;;;;;;5087742;28;20837;-59
2021/07/25 10:35:02;;;;;;;1.85;1.10;;;21.00;99.90;;;;;;5092492;28;20433;-58
2021/07/25 10:37:30;;;;;;;2.00;0.90;;;20.90;99.90;;;;;;5095987;28;20504;-59
2021/07/25 10:39:59;;;;;;;1.58;1.00;;;20.80;99.90;;;;;;5096003;28;20452;-59
2021/07/25 10:42:28;;;;;;;1.40;0.90;;;20.80;99.90;;;;;;5096598;28;20866;-58
2021/07/25 10:44:55;;;;;;;1.52;1.00;;;20.70;99.90;;;;;;5096243;28;20821;-59
2021/07/25 10:47:28;;;;;;;1.40;1.10;;;20.70;99.90;;;;;;5088725;28;20423;-58
2021/07/25 10:50:05;;;;;;;2.30;1.20;;;20.60;99.90;;;;;;5092317;28;20497;-58
2021/07/25 10:53:00;;;;;;;1.98;1.20;;;20.60;99.90;;;;;;5095230;28;20432;-59
2021/07/25 10:55:47;;;;;;;1.60;1.10;;;20.60;99.90;;;;;;5096289;28;20430;-59
2021/07/25 10:58:16;;;;;;;1.95;1.20;;;20.80;99.90;;;;;;5091005;28;20430;-59
2021/07/25 11:00:46;;;;;;;1.50;1.00;;;20.80;99.90;;;;;;5075442;28;20489;-60
2021/07/25 11:03:42;;;;;;;1.92;1.10;;;20.80;99.90;;;;;;5095118;28;20422;-60
2021/07/25 11:06:17;;;;;;;1.80;0.90;;;20.90;99.90;;;;;;5092959;28;20873;-60
2021/07/25 11:08:46;;;;;;;1.60;1.00;;;20.90;99.90;;;;;;5095677;28;20436;-59
2021/07/25 11:11:53;;;;;;;1.83;1.00;;;20.80;99.90;;;;;;5094646;28;20495;-60
2021/07/25 11:15:02;;;;;;;1.75;1.17;;;20.80;99.90;;;;;;5074378;28;20435;-58
2021/07/25 11:17:52;;;;;;;1.50;1.00;;;20.90;99.90;;;;;;5037412;28;20529;-58
2021/07/25 11:20:36;;;;;;;1.13;0.90;;;20.80;99.90;;;;;;5075577;28;21106;-58
2021/07/25 11:23:06;;;;;;;1.40;1.10;;;21.10;99.90;;;;;;5073920;28;20847;-59
2021/07/25 11:25:37;;;;;;;2.05;1.10;;;21.20;99.90;;;;;;5075854;28;20427;-58
2021/07/25 11:28:04;;;;;;;3.70;1.10;;;21.20;99.90;;;;;;5075926;28;20431;-59
2021/07/25 11:31:06;;;;;;;1.75;1.10;;;21.30;99.90;;;;;;5074798;28;20743;-60
2021/07/25 11:33:51;;;;;;;1.60;1.10;;;21.20;99.90;;;;;;5074995;28;20786;-59
2021/07/25 11:36:22;;;;;;;1.40;1.00;;;21.20;99.90;;;;;;5074874;28;20498;-58
2021/07/25 11:38:59;;;;;;;2.40;1.30;;;21.20;99.90;;;;;;5072933;28;20503;-59
2021/07/25 11:41:28;;;;;;;1.73;1.10;;;21.10;99.90;;;;;;5075293;28;20448;-60
2021/07/25 11:43:59;;;;;;;2.60;1.20;;;21.10;99.90;;;;;;5071737;28;20451;-60
2021/07/25 11:46:48;;;;;;;2.85;1.30;;;21.00;99.90;;;;;;5074093;28;20419;-59
2021/07/25 11:49:20;;;;;;;1.40;1.10;;;21.20;99.90;;;;;;5068580;28;20481;-60
2021/07/25 11:51:54;;;;;;;2.20;1.20;;;21.50;99.90;;;;;;5079988;28;20443;-61
2021/07/25 11:54:23;;;;;;;2.30;1.30;;;21.50;99.90;;;;;;5088704;28;20445;-61
2021/07/25 11:56:58;;;;;;;2.05;1.60;;;21.60;99.90;;;;;;5095113;28;20422;-62
2021/07/25 11:59:26;;;;;;;1.80;1.20;;;21.60;99.90;;;;;;5095323;28;20818;-61
2021/07/25 12:01:53;;;;;;;2.05;1.30;;;21.70;99.90;;;;;;5083879;28;20439;-62
2021/07/25 12:04:25;;;;;;;2.10;1.20;;;21.70;99.90;;;;;;5070185;28;20842;-62
2021/07/25 12:07:09;;;;;;;2.40;1.40;;;21.60;99.90;;;;;;5074241;28;20430;-62
2021/07/25 12:09:37;;;;;;;2.80;1.50;;;21.60;99.90;;;;;;5085428;28;20430;-60
2021/07/25 12:12:09;;;;;;;1.80;1.23;;;21.60;99.90;;;;;;5086700;28;20857;-61
2021/07/25 12:14:38;;;;;;;2.00;1.40;;;21.50;99.90;;;;;;5084972;28;20432;-61
2021/07/25 12:17:07;;;;;;;2.33;1.50;;;21.40;99.90;;;;;;5093438;28;20908;-62
2021/07/25 12:19:36;;;;;;;1.90;1.50;;;21.50;99.90;;;;;;5093524;28;20422;-61
2021/07/25 12:22:10;;;;;;;2.60;1.80;;;21.40;99.90;;;;;;5090801;28;20440;-59
2021/07/25 12:24:40;;;;;;;2.35;1.60;;;21.40;99.90;;;;;;5071655;28;20725;-59
2021/07/25 12:27:23;;;;;;;1.90;1.60;;;21.30;99.90;;;;;;5077145;28;20424;-59
2021/07/25 12:29:52;;;;;;;2.93;1.50;;;21.30;99.90;;;;;;5074690;28;20785;-59
2021/07/25 12:32:23;;;;;;;1.70;1.30;;;21.20;99.90;;;;;;5080866;28;20418;-60
2021/07/25 12:34:52;;;;;;;1.88;1.30;;;21.00;99.90;;;;;;5085943;28;20425;-60
2021/07/25 12:37:31;;;;;;;2.20;1.10;;;20.90;99.90;;;;;;5088449;28;20431;-59
2021/07/25 12:40:20;;;;;;;1.50;1.27;;;20.90;99.90;;;;;;5079887;28;20432;-60
2021/07/25 12:42:49;;;;;;;1.30;1.10;;;21.00;99.90;;;;;;5068216;28;20862;-61
2021/07/25 12:45:31;;;;;;;1.90;1.10;;;21.10;99.90;;;;;;5076527;28;20878;-61
2021/07/25 12:48:12;;;;;;;1.80;1.20;;;21.10;99.90;;;;;;5070443;28;20979;-60
2021/07/25 12:50:52;;;;;;;1.50;1.10;;;21.30;99.90;;;;;;5073842;28;20657;-61
2021/07/25 12:53:22;;;;;;;2.30;1.20;;;21.60;99.90;;;;;;5073919;28;20518;-60
2021/07/25 12:55:50;;;;;;;2.00;1.00;;;21.80;99.90;;;;;;5076749;28;20466;-60
2021/07/25 12:58:18;;;;;;;1.45;0.90;;;21.80;99.90;;;;;;5077934;28;20482;-60
2021/07/25 13:01:04;;;;;;;1.30;0.90;;;21.70;99.90;;;;;;5071321;28;20425;-60
2021/07/25 13:03:48;;;;;;;1.60;0.90;;;21.50;99.90;;;;;;5072202;28;20463;-60